หน้าหลัก
METAR-TAF:

METAR-TAF

ท่าอากาศยาน :

Los Mochis, เม็กซิโก

ละติจูด: 25-41N, ลองจิจูด: 109-05W, ความสูง: 4 ม.

การสังเกตสภาพอากาศปัจจุบัน

รายงานได้ทำขึ้นเมื่อ 1 ชั่วโมงและ 7 นาทีที่แล้ว ณ เวลา 13:40 UTC
ลม 11 นอตจากตะวันออกเฉียงใต้
อุณหภูมิ 28°C
ความชื้น 66%
ความกดอากาศ 1006 hPa
ทัศนวิสัย: 16.1 กม.
ท้องฟ้าแจ่มใส

METAR: MMLM 181340Z 14011KT 10SM SKC 28/21 A2972 RMK HZY ISOL SC RTS

เวลา: 08:47 (14:47 UTC)

การพยากรณ์

รายงานได้ทำขึ้นเมื่อ 10 ชั่วโมงและ 26 นาทีที่แล้ว ณ เวลา 04:21 UTC
การพยากรณ์มีผลตั้งแต่วันที่ 18 ณ เวลา 06 UTC จนถึงวันที่ 19 ณ เวลา 06 UTC
ลม 5 นอตจากใต้/ตะวันออกเฉียงใต้
ทัศนวิสัย: 10 กม.
ท้องฟ้าแจ่มใส
ชั่วคราว
ตั้งแต่วันที่ 18 ณ เวลา 10 UTC จนถึงวันที่ 18 ณ เวลา 14 UTC
ทัศนวิสัย: 1.6 กม.
มีเมฆเป็นส่วนมากเว้นเป็นระยะที่ความสูง 600 ฟุต
หมอกน้ำค้าง
จาก 18 ณ เวลา 1600 UTC
ลม 12 นอตจากตะวันออกเฉียงใต้
ทัศนวิสัย: 10 กม.
ท้องฟ้าแจ่มใส
จาก 19 ณ เวลา 0200 UTC
ลม 5 นอตจากตะวันออกเฉียงใต้
ทัศนวิสัย: 10 กม.
ท้องฟ้าแจ่มใส

TAF: MMLM 180421Z 1806/1906 16005KT P6SM SKC TEMPO 1810/1814 1SM BR BKN006 FM181600 14012KT P6SM SKC FM190200 13005KT P6SM SKC

สังเกตการณ์สภาพอากาศและพยากรณ์อากาศของสนามบินมากกว่า 4000 แห่ง (รายงาน METAR และ TAF).

สถานีที่ดูได้จะแสดงไว้ด้วยจุดสีเหลืองและสีแดงบนแผนที่.

เลื่อนเมาส์ไปเหนือจุดเพื่อดูชื่อสถานี.

แล้วคลิกเพื่อดูสังเกตการณ์และการพยากรณ์สภาพอากาศ.

ในการเปลี่ยนแผนที่: คลิกที่ปุ่มสีเขียวที่มีกากบาทสีดำเพื่อซูมเข้า; ที่ปุ่มสีเขียวที่มีขีดเพื่อซูมออก; หรือที่ลูกศรสีเขียวเพื่อไปยังแผนที่ที่อยู่ติดกัน.


METAR-TAF: